createdAt,value
2022-11-15T00:01:42.652Z,5.83
2022-11-15T00:04:27.894Z,5.79
2022-11-15T00:07:33.283Z,5.76
2022-11-15T00:10:17.957Z,5.75
2022-11-15T00:13:07.943Z,5.72
2022-11-15T00:15:53.063Z,5.72
2022-11-15T00:18:39.186Z,5.71
2022-11-15T00:21:24.218Z,5.74
2022-11-15T00:24:09.728Z,5.75
2022-11-15T00:26:54.547Z,5.77
2022-11-15T00:29:43.510Z,5.75
2022-11-15T00:32:32.715Z,5.73
2022-11-15T00:35:18.930Z,5.68
2022-11-15T00:38:04.030Z,5.64
2022-11-15T00:40:48.970Z,5.65
2022-11-15T00:43:34.748Z,5.61
2022-11-15T00:46:19.942Z,5.61
2022-11-15T00:49:04.928Z,5.56
2022-11-15T00:51:49.599Z,5.55
2022-11-15T00:54:34.622Z,5.54
2022-11-15T00:57:19.465Z,5.54
2022-11-15T01:00:05.194Z,5.54
2022-11-15T01:02:51.279Z,5.53
2022-11-15T01:05:38.372Z,5.51
2022-11-15T01:08:23.216Z,5.52
2022-11-15T01:11:11.853Z,5.48
2022-11-15T01:13:56.708Z,5.46
2022-11-15T01:16:42.690Z,5.49
2022-11-15T01:19:27.345Z,5.52
2022-11-15T01:22:12.523Z,5.57
2022-11-15T01:24:57.423Z,5.63
2022-11-15T01:27:42.352Z,5.62
2022-11-15T01:30:27.416Z,5.63
2022-11-15T01:33:12.126Z,5.60
2022-11-15T01:35:57.174Z,5.56
2022-11-15T01:38:42.673Z,5.53
2022-11-15T01:41:30.787Z,5.52
2022-11-15T01:44:34.056Z,5.53
2022-11-15T01:47:30.684Z,5.53
2022-11-15T01:50:21.329Z,5.56
2022-11-15T01:53:06.160Z,5.56
2022-11-15T01:55:51.442Z,5.57
2022-11-15T01:58:38.263Z,5.57
2022-11-15T02:01:25.889Z,5.56
2022-11-15T02:04:19.506Z,5.55
2022-11-15T02:07:06.540Z,5.49
2022-11-15T02:09:53.258Z,5.46
2022-11-15T02:12:38.819Z,5.48
2022-11-15T02:15:31.578Z,5.50
2022-11-15T02:18:32.235Z,5.51
2022-11-15T02:21:33.432Z,5.45
2022-11-15T02:24:46.026Z,5.39
2022-11-15T02:27:52.681Z,5.33
2022-11-15T02:30:54.463Z,5.35
2022-11-15T02:33:55.630Z,5.36
2022-11-15T02:36:58.469Z,5.41
2022-11-15T02:39:52.629Z,5.46
2022-11-15T02:43:08.152Z,5.45
2022-11-15T02:46:43.811Z,5.46
2022-11-15T02:49:32.810Z,5.49
2022-11-15T02:52:20.980Z,5.50
2022-11-15T02:55:31.655Z,5.54
2022-11-15T02:58:39.101Z,5.58
2022-11-15T03:01:32.690Z,5.56
2022-11-15T03:04:20.957Z,5.56
2022-11-15T03:07:11.232Z,5.58
2022-11-15T03:10:00.885Z,5.58
2022-11-15T03:12:58.448Z,5.47
2022-11-15T03:16:17.821Z,5.41
2022-11-15T03:19:13.736Z,5.32
2022-11-15T03:22:03.116Z,5.31
2022-11-15T03:24:53.616Z,5.30
2022-11-15T03:27:43.522Z,5.27
2022-11-15T03:30:30.855Z,5.27
2022-11-15T03:33:16.961Z,5.28
2022-11-15T03:36:02.741Z,5.30
2022-11-15T03:38:48.435Z,5.32
2022-11-15T03:42:00.681Z,5.28
2022-11-15T03:45:13.903Z,5.26
2022-11-15T03:48:04.539Z,5.23
2022-11-15T03:50:49.883Z,5.24
2022-11-15T03:53:34.936Z,5.23
2022-11-15T03:56:20.581Z,5.23
2022-11-15T03:59:05.525Z,5.18
2022-11-15T04:01:50.421Z,5.13
2022-11-15T04:04:35.133Z,5.11
2022-11-15T04:07:20.381Z,5.08
2022-11-15T04:10:06.147Z,5.05
2022-11-15T04:12:51.100Z,4.94
2022-11-15T04:15:36.512Z,4.88
2022-11-15T04:18:21.557Z,4.82
2022-11-15T04:21:27.692Z,4.73
2022-11-15T04:24:12.448Z,4.69
2022-11-15T04:26:57.803Z,4.69
2022-11-15T04:29:43.042Z,4.72
2022-11-15T04:32:28.043Z,4.76
2022-11-15T04:35:13.103Z,4.77
2022-11-15T04:37:59.028Z,4.82
2022-11-15T04:40:43.923Z,4.88
2022-11-15T04:43:30.156Z,4.89
2022-11-15T04:46:15.142Z,4.89
2022-11-15T04:49:00.370Z,4.92
2022-11-15T04:51:45.636Z,4.92
2022-11-15T04:54:30.449Z,4.94
2022-11-15T04:57:15.731Z,4.95
2022-11-15T05:00:00.369Z,4.93
2022-11-15T05:03:03.872Z,4.96
2022-11-15T05:05:48.501Z,4.93
2022-11-15T05:08:33.541Z,4.90
2022-11-15T05:11:18.831Z,4.89
2022-11-15T05:14:03.564Z,4.89
2022-11-15T05:16:48.707Z,4.90
2022-11-15T05:19:33.808Z,4.94
2022-11-15T05:22:19.343Z,4.93
2022-11-15T05:25:05.070Z,4.97
2022-11-15T05:27:50.071Z,5.04
2022-11-15T05:30:35.175Z,5.07
2022-11-15T05:33:22.851Z,4.99
2022-11-15T05:36:22.304Z,4.97
2022-11-15T05:39:09.319Z,5.04
2022-11-15T05:41:59.705Z,5.04
2022-11-15T05:44:49.486Z,5.04
2022-11-15T05:47:37.172Z,5.07
2022-11-15T05:50:22.113Z,5.14
2022-11-15T05:53:08.313Z,5.15
2022-11-15T05:55:53.831Z,5.14
2022-11-15T05:58:38.634Z,5.11
2022-11-15T06:01:25.546Z,5.03
2022-11-15T06:04:10.695Z,5.00
2022-11-15T06:06:55.674Z,4.99
2022-11-15T06:09:41.184Z,4.90
2022-11-15T06:12:26.002Z,4.91
2022-11-15T06:15:10.978Z,4.92
2022-11-15T06:17:59.448Z,4.95
2022-11-15T06:20:44.391Z,4.94
2022-11-15T06:23:32.976Z,4.87
2022-11-15T06:26:18.318Z,4.86
2022-11-15T06:29:04.822Z,4.87
2022-11-15T06:31:49.746Z,4.96
2022-11-15T06:34:36.089Z,5.00
2022-11-15T06:37:21.031Z,5.00
2022-11-15T06:40:07.300Z,5.04
2022-11-15T06:42:58.198Z,5.03
2022-11-15T06:45:42.932Z,5.00
2022-11-15T06:48:29.932Z,4.98
2022-11-15T06:51:15.035Z,4.94
2022-11-15T06:54:00.130Z,4.93
2022-11-15T06:56:44.960Z,4.90
2022-11-15T06:59:29.827Z,4.93
2022-11-15T07:02:15.218Z,4.97
2022-11-15T07:05:00.304Z,4.99
2022-11-15T07:07:52.811Z,5.02
2022-11-15T07:10:37.737Z,5.07
2022-11-15T07:13:26.409Z,5.14
2022-11-15T07:16:12.028Z,5.16
2022-11-15T07:18:57.279Z,5.19
2022-11-15T07:21:42.423Z,5.20
2022-11-15T07:24:27.355Z,5.23
2022-11-15T07:27:12.374Z,5.29
2022-11-15T07:29:57.760Z,5.30
2022-11-15T07:32:42.805Z,5.35
2022-11-15T07:35:28.704Z,5.41
2022-11-15T07:38:15.275Z,5.50
2022-11-15T07:41:03.165Z,5.56
2022-11-15T07:43:51.873Z,5.62
2022-11-15T07:46:37.113Z,5.67
2022-11-15T07:49:22.233Z,5.71
2022-11-15T07:52:07.089Z,5.70
2022-11-15T07:54:52.043Z,5.72
2022-11-15T07:57:37.304Z,5.72
2022-11-15T08:00:22.775Z,5.74
2022-11-15T08:03:12.581Z,5.79
2022-11-15T08:05:57.720Z,5.77
2022-11-15T08:08:42.464Z,5.74
2022-11-15T08:11:27.162Z,5.77
2022-11-15T08:14:12.270Z,5.78
2022-11-15T08:16:56.996Z,5.78
2022-11-15T08:19:42.017Z,5.81
2022-11-15T08:22:26.828Z,5.81
2022-11-15T08:25:11.933Z,5.84
2022-11-15T08:28:00.600Z,5.87
2022-11-15T08:30:45.890Z,5.93
2022-11-15T08:33:33.064Z,6.03
2022-11-15T08:36:18.364Z,6.08
2022-11-15T08:39:03.394Z,6.08
2022-11-15T08:41:48.591Z,6.09
2022-11-15T08:44:33.632Z,6.09
2022-11-15T08:47:18.495Z,6.11
2022-11-15T08:50:03.671Z,6.07
2022-11-15T08:52:48.977Z,6.13
2022-11-15T08:55:37.523Z,6.13
2022-11-15T08:58:22.483Z,6.13
2022-11-15T09:01:18.348Z,6.21
2022-11-15T09:04:04.369Z,6.34
2022-11-15T09:06:49.621Z,6.46
2022-11-15T09:09:35.067Z,6.51
2022-11-15T09:12:19.778Z,6.52
2022-11-15T09:15:06.474Z,6.55
2022-11-15T09:17:51.320Z,6.56
2022-11-15T09:20:36.709Z,6.61
2022-11-15T09:23:24.614Z,6.67
2022-11-15T09:26:09.460Z,6.73
2022-11-15T09:28:54.388Z,6.77
2022-11-15T09:31:39.068Z,6.82
2022-11-15T09:34:24.197Z,6.87
2022-11-15T09:37:08.906Z,6.86
2022-11-15T09:39:53.532Z,6.92
2022-11-15T09:43:16.485Z,6.96
2022-11-15T09:46:32.699Z,6.97
2022-11-15T09:49:18.760Z,7.03
2022-11-15T09:52:24.131Z,7.09
2022-11-15T09:54:54.347Z,7.13
2022-11-15T09:58:04.259Z,7.21
2022-11-15T10:00:47.030Z,7.26
2022-11-15T10:03:17.040Z,7.37
2022-11-15T10:05:46.309Z,7.44
2022-11-15T10:08:28.320Z,7.52
2022-11-15T10:11:30.379Z,7.53
2022-11-15T10:13:50.506Z,7.49
2022-11-15T10:16:47.472Z,7.52
2022-11-15T10:19:29.069Z,7.54
2022-11-15T10:22:13.842Z,7.58
2022-11-15T10:24:45.440Z,7.60
2022-11-15T10:27:15.525Z,7.58
2022-11-15T10:29:47.337Z,7.55
2022-11-15T10:32:15.915Z,7.58
2022-11-15T10:34:42.758Z,7.58
2022-11-15T10:37:09.677Z,7.60
2022-11-15T10:39:36.318Z,7.64
2022-11-15T10:42:28.490Z,7.63
2022-11-15T10:44:55.755Z,7.59
2022-11-15T10:47:28.612Z,7.66
2022-11-15T10:49:56.871Z,7.72
2022-11-15T10:52:24.824Z,7.81
2022-11-15T10:55:04.975Z,7.86
2022-11-15T10:57:36.576Z,7.87
2022-11-15T11:00:07.684Z,7.89
2022-11-15T11:02:56.780Z,7.93
2022-11-15T11:05:42.521Z,7.97
2022-11-15T11:08:12.166Z,7.93
2022-11-15T11:10:51.362Z,7.95
2022-11-15T11:13:25.154Z,7.94
2022-11-15T11:16:10.781Z,8.00
2022-11-15T11:19:06.998Z,8.09
2022-11-15T11:22:12.517Z,8.11
2022-11-15T11:24:50.042Z,8.07
2022-11-15T11:27:32.898Z,8.01
2022-11-15T11:30:22.340Z,8.05
2022-11-15T11:33:16.783Z,8.06
2022-11-15T11:35:53.517Z,8.14
2022-11-15T11:38:34.383Z,8.09
2022-11-15T11:41:28.989Z,8.06
2022-11-15T11:44:18.500Z,8.12
2022-11-15T11:46:50.183Z,8.22
2022-11-15T11:49:23.452Z,8.26
2022-11-15T11:52:22.025Z,8.27
2022-11-15T11:54:58.941Z,8.31
2022-11-15T11:57:28.036Z,8.31
2022-11-15T12:00:01.896Z,8.25
2022-11-15T12:02:34.916Z,8.26
2022-11-15T12:05:17.576Z,8.26
2022-11-15T12:07:46.594Z,8.23
2022-11-15T12:10:29.042Z,8.23
2022-11-15T12:12:55.471Z,8.26
2022-11-15T12:15:54.007Z,8.28
2022-11-15T12:18:20.330Z,8.19
2022-11-15T12:20:55.808Z,8.21
2022-11-15T12:23:29.248Z,8.19
2022-11-15T12:26:03.536Z,8.21
2022-11-15T12:29:05.989Z,8.26
2022-11-15T12:31:49.275Z,8.33
2022-11-15T12:34:21.500Z,8.36
2022-11-15T12:36:50.124Z,8.36
2022-11-15T12:39:17.628Z,8.36
2022-11-15T12:42:07.067Z,8.32
2022-11-15T12:44:39.412Z,8.31
2022-11-15T12:47:26.054Z,8.26
2022-11-15T12:49:53.289Z,8.21
2022-11-15T12:52:20.623Z,8.17
2022-11-15T12:54:51.146Z,8.18
2022-11-15T12:57:20.348Z,8.21
2022-11-15T12:59:55.620Z,8.20
2022-11-15T13:02:23.343Z,8.19
2022-11-15T13:04:51.859Z,8.18
2022-11-15T13:07:39.334Z,8.21
2022-11-15T13:10:30.543Z,8.25
2022-11-15T13:12:59.424Z,8.21
2022-11-15T13:15:59.220Z,8.16
2022-11-15T13:18:34.298Z,8.10
2022-11-15T13:21:22.375Z,8.07
2022-11-15T13:23:53.405Z,8.07
2022-11-15T13:26:21.111Z,8.10
2022-11-15T13:28:52.221Z,8.14
2022-11-15T13:31:37.858Z,8.20
2022-11-15T13:34:44.060Z,8.23
2022-11-15T13:37:02.282Z,8.27
2022-11-15T13:39:30.130Z,8.31
2022-11-15T13:41:57.605Z,8.36
2022-11-15T13:44:31.587Z,8.30
2022-11-15T13:47:19.862Z,8.21
2022-11-15T13:49:47.283Z,8.11
2022-11-15T13:52:16.735Z,8.11
2022-11-15T13:55:03.780Z,8.10
2022-11-15T13:57:44.864Z,8.07
2022-11-15T14:00:45.055Z,8.05
2022-11-15T14:03:27.922Z,8.09
2022-11-15T14:06:21.961Z,8.16
2022-11-15T14:08:59.462Z,8.16
2022-11-15T14:11:26.291Z,8.11
2022-11-15T14:14:07.938Z,8.09
2022-11-15T14:16:43.018Z,8.00
2022-11-15T14:19:21.641Z,7.95
2022-11-15T14:22:11.538Z,7.89
2022-11-15T14:24:39.322Z,7.85
2022-11-15T14:27:27.485Z,7.88
2022-11-15T14:29:54.759Z,7.84
2022-11-15T14:32:26.881Z,7.82
2022-11-15T14:35:01.203Z,7.84
2022-11-15T14:37:35.058Z,7.89
2022-11-15T14:40:04.454Z,7.88
2022-11-15T14:42:31.525Z,7.84
2022-11-15T14:44:58.583Z,7.86
2022-11-15T14:47:24.957Z,7.84
2022-11-15T14:49:51.325Z,7.76
2022-11-15T14:52:33.964Z,7.74
2022-11-15T14:55:02.622Z,7.74
2022-11-15T14:57:29.953Z,7.72
2022-11-15T14:59:57.129Z,7.72
2022-11-15T15:02:26.041Z,7.73
2022-11-15T15:04:53.254Z,7.75
2022-11-15T15:07:20.623Z,7.81
2022-11-15T15:09:47.262Z,7.84
2022-11-15T15:12:19.861Z,7.79
2022-11-15T15:14:47.866Z,7.74
2022-11-15T15:17:14.690Z,7.74
2022-11-15T15:19:41.701Z,7.70
2022-11-15T15:22:19.929Z,7.67
2022-11-15T15:24:46.659Z,7.71
2022-11-15T15:27:14.581Z,7.75
2022-11-15T15:29:41.344Z,7.76
2022-11-15T15:33:38.795Z,7.80
2022-11-15T15:36:10.344Z,7.78
2022-11-15T15:38:38.010Z,7.70
2022-11-15T15:41:10.489Z,7.62
2022-11-15T15:43:38.774Z,7.54
2022-11-15T15:46:11.200Z,7.48
2022-11-15T15:48:40.467Z,7.44
2022-11-15T15:51:14.318Z,7.42
2022-11-15T15:53:46.496Z,7.41
2022-11-15T15:56:14.311Z,7.37
2022-11-15T15:58:42.043Z,7.35
2022-11-15T16:01:09.907Z,7.30
2022-11-15T16:03:37.673Z,7.21
2022-11-15T16:06:06.888Z,7.17
2022-11-15T16:08:53.254Z,7.13
2022-11-15T16:11:22.628Z,7.10
2022-11-15T16:13:50.343Z,7.09
2022-11-15T16:16:19.047Z,7.10
2022-11-15T16:18:46.788Z,7.16
2022-11-15T16:21:14.638Z,7.24
2022-11-15T16:23:42.337Z,7.32
2022-11-15T16:26:28.468Z,7.35
2022-11-15T16:28:56.508Z,7.33
2022-11-15T16:31:24.206Z,7.34
2022-11-15T16:33:51.914Z,7.29
2022-11-15T16:36:28.474Z,7.23
2022-11-15T16:38:59.714Z,7.24
2022-11-15T16:41:27.640Z,7.18
2022-11-15T16:43:55.551Z,7.15
2022-11-15T16:46:25.881Z,7.12
2022-11-15T16:48:54.324Z,7.10
2022-11-15T16:51:23.579Z,7.07
2022-11-15T16:53:51.546Z,7.06
2022-11-15T16:56:27.329Z,7.09
2022-11-15T16:58:58.607Z,7.13
2022-11-15T17:01:33.041Z,7.12
2022-11-15T17:04:12.891Z,7.11
2022-11-15T17:06:42.732Z,7.14
2022-11-15T17:09:12.681Z,7.13
2022-11-15T17:11:41.394Z,7.09
2022-11-15T17:14:10.475Z,7.02
2022-11-15T17:16:42.241Z,6.98
2022-11-15T17:19:18.228Z,6.97
2022-11-15T17:21:48.120Z,6.96
2022-11-15T17:24:17.231Z,6.93
2022-11-15T17:26:44.929Z,6.92
2022-11-15T17:29:12.681Z,6.92
2022-11-15T17:34:45.292Z,7.02
2022-11-15T17:37:13.054Z,7.01
2022-11-15T17:39:40.906Z,6.96
2022-11-15T17:42:09.423Z,6.90
2022-11-15T17:44:38.176Z,6.82
2022-11-15T17:47:05.911Z,6.84
2022-11-15T17:49:35.025Z,6.85
2022-11-15T17:52:02.716Z,6.89
2022-11-15T17:54:30.397Z,6.86
2022-11-15T17:56:58.105Z,6.83
2022-11-15T17:59:25.913Z,6.83
2022-11-15T18:01:56.170Z,6.83
2022-11-15T18:04:28.354Z,6.80
2022-11-15T18:06:56.494Z,6.73
2022-11-15T18:09:25.831Z,6.71
2022-11-15T18:11:55.095Z,6.73
2022-11-15T18:14:22.827Z,6.79
2022-11-15T18:16:50.706Z,6.86
2022-11-15T18:19:18.421Z,6.88
2022-11-15T18:22:00.527Z,6.87
2022-11-15T18:24:30.624Z,6.82
2022-11-15T18:26:59.429Z,6.79
2022-11-15T18:29:28.144Z,6.78
2022-11-15T18:31:56.409Z,6.78
2022-11-15T18:34:25.647Z,6.80
2022-11-15T18:36:53.854Z,6.79
2022-11-15T18:39:21.625Z,6.76
2022-11-15T18:41:49.683Z,6.72
2022-11-15T18:44:18.911Z,6.68
2022-11-15T18:46:46.913Z,6.66
2022-11-15T18:49:17.080Z,6.67
2022-11-15T18:51:44.904Z,6.72
2022-11-15T18:54:15.110Z,6.74
2022-11-15T18:56:47.060Z,6.74
2022-11-15T18:59:15.472Z,6.69
2022-11-15T19:01:48.152Z,6.63
2022-11-15T19:04:18.513Z,6.60
2022-11-15T19:06:48.395Z,6.64
2022-11-15T19:09:18.436Z,6.62
2022-11-15T19:11:48.197Z,6.65
2022-11-15T19:14:16.716Z,6.69
2022-11-15T19:16:52.588Z,6.72
2022-11-15T19:19:27.788Z,6.72
2022-11-15T19:21:57.468Z,6.68
2022-11-15T19:24:27.196Z,6.61
2022-11-15T19:26:55.337Z,6.58
2022-11-15T19:29:23.076Z,6.53
2022-11-15T19:31:50.878Z,6.49
2022-11-15T19:34:18.658Z,6.49
2022-11-15T19:36:46.675Z,6.51
2022-11-15T19:39:15.409Z,6.49
2022-11-15T19:41:44.270Z,6.46
2022-11-15T19:44:13.178Z,6.43
2022-11-15T19:46:41.669Z,6.40
2022-11-15T19:49:11.199Z,6.35
2022-11-15T19:51:42.466Z,6.33
2022-11-15T19:54:10.886Z,6.35
2022-11-15T19:56:40.063Z,6.38
2022-11-15T19:59:08.927Z,6.38
2022-11-15T20:01:38.840Z,6.38
2022-11-15T20:04:08.270Z,6.42
2022-11-15T20:06:39.331Z,6.44
2022-11-15T20:09:08.596Z,6.41
2022-11-15T20:11:38.217Z,6.39
2022-11-15T20:14:07.892Z,6.36
2022-11-15T20:16:35.861Z,6.36
2022-11-15T20:19:03.832Z,6.34
2022-11-15T20:21:31.630Z,6.30
2022-11-15T20:23:59.566Z,6.27
2022-11-15T20:26:27.412Z,6.30
2022-11-15T20:29:01.030Z,6.24
2022-11-15T20:31:30.391Z,6.21
2022-11-15T20:33:58.735Z,6.16
2022-11-15T20:36:26.543Z,6.09
2022-11-15T20:38:59.223Z,6.01
2022-11-15T20:41:27.697Z,5.96
2022-11-15T20:43:55.946Z,5.95
2022-11-15T20:46:24.027Z,5.98
2022-11-15T20:48:51.779Z,5.98
2022-11-15T20:51:20.281Z,5.99
2022-11-15T20:53:48.451Z,6.01
2022-11-15T20:56:18.911Z,6.00
2022-11-15T20:58:47.436Z,5.93
2022-11-15T21:01:17.276Z,5.94
2022-11-15T21:03:47.148Z,5.93
2022-11-15T21:06:14.986Z,5.87
2022-11-15T21:09:01.282Z,5.85
2022-11-15T21:11:47.789Z,5.85
2022-11-15T21:14:15.527Z,5.79
2022-11-15T21:16:43.335Z,5.74
2022-11-15T21:19:11.384Z,5.69
2022-11-15T21:21:39.401Z,5.64
2022-11-15T21:24:09.076Z,5.63
2022-11-15T21:26:37.185Z,5.63
2022-11-15T21:29:05.122Z,5.58
2022-11-15T21:31:33.024Z,5.59
2022-11-15T21:34:02.706Z,5.60
2022-11-15T21:36:30.420Z,5.61
2022-11-15T21:38:58.209Z,5.55
2022-11-15T21:41:26.055Z,5.50
2022-11-15T21:44:00.784Z,5.46
2022-11-15T21:46:30.157Z,5.46
2022-11-15T21:48:58.594Z,5.42
2022-11-15T21:51:26.356Z,5.42
2022-11-15T21:53:55.730Z,5.42
2022-11-15T21:56:25.712Z,5.45
2022-11-15T21:58:54.274Z,5.49
2022-11-15T22:01:42.854Z,5.48
2022-11-15T22:04:10.613Z,5.47
2022-11-15T22:06:38.467Z,5.43
2022-11-15T22:09:06.975Z,5.34
2022-11-15T22:11:35.268Z,5.30
2022-11-15T22:14:03.497Z,5.28
2022-11-15T22:16:31.738Z,5.26
2022-11-15T22:18:59.973Z,5.21
2022-11-15T22:21:27.853Z,5.18
2022-11-15T22:23:55.901Z,5.16
2022-11-15T22:26:24.298Z,5.18
2022-11-15T22:28:53.806Z,5.18
2022-11-15T22:31:21.698Z,5.16
2022-11-15T22:33:49.517Z,5.12
2022-11-15T22:36:17.519Z,5.18
2022-11-15T22:38:45.386Z,5.19
2022-11-15T22:41:13.372Z,5.22
2022-11-15T22:43:41.618Z,5.24
2022-11-15T22:46:10.779Z,5.27
2022-11-15T22:48:39.610Z,5.28
2022-11-15T22:51:08.428Z,5.29
2022-11-15T22:53:36.291Z,5.28
2022-11-15T22:56:06.323Z,5.28
2022-11-15T22:58:34.553Z,5.29
2022-11-15T23:01:05.111Z,5.30
2022-11-15T23:03:34.146Z,5.33
2022-11-15T23:06:07.098Z,5.33
2022-11-15T23:08:35.404Z,5.30
2022-11-15T23:11:23.267Z,5.29
2022-11-15T23:13:52.388Z,5.27
2022-11-15T23:16:22.544Z,5.30
2022-11-15T23:18:54.456Z,5.34
2022-11-15T23:21:50.302Z,5.39
2022-11-15T23:24:18.958Z,5.44
2022-11-15T23:26:48.597Z,5.41
2022-11-15T23:29:18.826Z,5.38
2022-11-15T23:32:05.537Z,5.35
2022-11-15T23:34:36.967Z,5.33
2022-11-15T23:37:06.356Z,5.35
2022-11-15T23:39:34.228Z,5.36
2022-11-15T23:42:07.659Z,5.40
2022-11-15T23:44:37.339Z,5.48
2022-11-15T23:47:05.151Z,5.50
2022-11-15T23:49:33.062Z,5.51
2022-11-15T23:52:00.858Z,5.57
2022-11-15T23:54:28.669Z,5.61
2022-11-15T23:56:56.417Z,5.62
2022-11-15T23:59:24.371Z,5.65
